SHT9K EGPH-EGLL
Flight info
| Callsign | SHT9K |
|---|---|
| Flight time | 0h 56m |
| Altitude | 33000 |
| Route | GOSAM1C GOSAM P600 FENIK L612 NAVSO DCT AKOMU DCT VAMEB DCT NUGRA NUGRA2H |
| Aircraft | A320/M-SDE3FGIJ1KRWXY/SB1 |
Departure
| Time | 2026-05-07 14:03 |
|---|---|
| Airport | Edinburgh Airport (EGPH) |
Arrival
| Time | 2026-05-07 14:59 |
|---|---|
| Airport | London Heathrow Airport (EGLL) |
| Time | Latitude | Longitude | Altitude | Speed | Heading |
|---|---|---|---|---|---|
| 2026-05-07 13:13 | 55.94854 | -3.36604 | 116 ft | 0 kts | 145° |
| 2026-05-07 13:43 | 55.94855 | -3.36604 | 116 ft | 0 kts | 145° |
| 2026-05-07 13:53 | 55.94872 | -3.36626 | 113 ft | 4 kts | 145° |
| 2026-05-07 13:53 | 55.94891 | -3.36649 | 114 ft | 3 kts | 146° |
| 2026-05-07 13:53 | 55.94913 | -3.36663 | 115 ft | 4 kts | 198° |
| 2026-05-07 13:54 | 55.94932 | -3.36639 | 115 ft | 2 kts | 238° |
| 2026-05-07 13:54 | 55.94933 | -3.36635 | 114 ft | 0 kts | 239° |
| 2026-05-07 13:56 | 55.94924 | -3.36662 | 113 ft | 2 kts | 237° |
| 2026-05-07 13:56 | 55.94916 | -3.36683 | 116 ft | 0 kts | 237° |
| 2026-05-07 13:59 | 55.94913 | -3.36690 | 116 ft | 4 kts | 236° |
| 2026-05-07 13:59 | 55.94896 | -3.36767 | 116 ft | 8 kts | 269° |
| 2026-05-07 13:59 | 55.94941 | -3.36825 | 112 ft | 10 kts | 13° |
| 2026-05-07 13:59 | 55.94988 | -3.36721 | 116 ft | 12 kts | 60° |
| 2026-05-07 14:00 | 55.95033 | -3.36579 | 114 ft | 14 kts | 60° |
| 2026-05-07 14:00 | 55.95089 | -3.36415 | 114 ft | 17 kts | 58° |
| 2026-05-07 14:00 | 55.95153 | -3.36226 | 111 ft | 19 kts | 58° |
| 2026-05-07 14:00 | 55.95225 | -3.36017 | 113 ft | 20 kts | 59° |
| 2026-05-07 14:01 | 55.95294 | -3.35804 | 115 ft | 19 kts | 59° |
| 2026-05-07 14:01 | 55.95364 | -3.35596 | 116 ft | 20 kts | 58° |
| 2026-05-07 14:01 | 55.95419 | -3.35437 | 113 ft | 12 kts | 51° |
| 2026-05-07 14:01 | 55.95501 | -3.35442 | 114 ft | 14 kts | 332° |
| 2026-05-07 14:02 | 55.95558 | -3.35593 | 112 ft | 18 kts | 255° |
| 2026-05-07 14:02 | 55.95457 | -3.35904 | 110 ft | 63 kts | 238° |
| 2026-05-07 14:02 | 55.95073 | -3.37022 | 113 ft | 142 kts | 238° |
| 2026-05-07 14:02 | 55.94497 | -3.38760 | 571 ft | 169 kts | 239° |
| 2026-05-07 14:03 | 55.94103 | -3.39962 | 1228 ft | 170 kts | 238° |
| 2026-05-07 14:03 | 55.93526 | -3.41712 | 2097 ft | 166 kts | 239° |
| 2026-05-07 14:03 | 55.92961 | -3.43551 | 2614 ft | 173 kts | 238° |
| 2026-05-07 14:03 | 55.92312 | -3.45488 | 2955 ft | 192 kts | 235° |
| 2026-05-07 14:04 | 55.91553 | -3.47624 | 3380 ft | 216 kts | 234° |
| 2026-05-07 14:04 | 55.90511 | -3.50939 | 4078 ft | 246 kts | 250° |
| 2026-05-07 14:04 | 55.90252 | -3.52977 | 4648 ft | 251 kts | 255° |
| 2026-05-07 14:04 | 55.89927 | -3.56041 | 5539 ft | 254 kts | 256° |
| 2026-05-07 14:05 | 55.89515 | -3.60145 | 5923 ft | 253 kts | 257° |
| 2026-05-07 14:05 | 55.89309 | -3.62227 | 5982 ft | 252 kts | 257° |
| 2026-05-07 14:05 | 55.89005 | -3.65313 | 6434 ft | 254 kts | 257° |
| 2026-05-07 14:05 | 55.88437 | -3.68221 | 7357 ft | 253 kts | 237° |
| 2026-05-07 14:06 | 55.87226 | -3.70477 | 8192 ft | 257 kts | 213° |
| 2026-05-07 14:06 | 55.85534 | -3.71576 | 9021 ft | 265 kts | 190° |
| 2026-05-07 14:06 | 55.83680 | -3.71886 | 9819 ft | 269 kts | 188° |
| 2026-05-07 14:06 | 55.81772 | -3.72168 | 10336 ft | 286 kts | 187° |
| 2026-05-07 14:07 | 55.79704 | -3.72480 | 10559 ft | 310 kts | 187° |
| 2026-05-07 14:07 | 55.77509 | -3.72820 | 11045 ft | 321 kts | 187° |
| 2026-05-07 14:07 | 55.75270 | -3.73171 | 11712 ft | 325 kts | 187° |
| 2026-05-07 14:07 | 55.72997 | -3.73524 | 12448 ft | 329 kts | 187° |
| 2026-05-07 14:08 | 55.70708 | -3.73875 | 13136 ft | 332 kts | 187° |
| 2026-05-07 14:08 | 55.68390 | -3.74233 | 13796 ft | 336 kts | 187° |
| 2026-05-07 14:08 | 55.66052 | -3.74592 | 14461 ft | 339 kts | 187° |
| 2026-05-07 14:08 | 55.63682 | -3.74953 | 15107 ft | 342 kts | 187° |
| 2026-05-07 14:09 | 55.61302 | -3.75320 | 15722 ft | 345 kts | 187° |
| 2026-05-07 14:09 | 55.58896 | -3.75697 | 16309 ft | 349 kts | 187° |
| 2026-05-07 14:09 | 55.56467 | -3.76082 | 16891 ft | 352 kts | 187° |
| 2026-05-07 14:09 | 55.54015 | -3.76466 | 17463 ft | 355 kts | 187° |
| 2026-05-07 14:10 | 55.51539 | -3.76852 | 18028 ft | 359 kts | 187° |
| 2026-05-07 14:10 | 55.49074 | -3.77238 | 18596 ft | 362 kts | 187° |
| 2026-05-07 14:10 | 55.46552 | -3.77628 | 19173 ft | 365 kts | 187° |
| 2026-05-07 14:10 | 55.44013 | -3.78022 | 19729 ft | 368 kts | 187° |
| 2026-05-07 14:11 | 55.41441 | -3.78420 | 20274 ft | 372 kts | 187° |
| 2026-05-07 14:11 | 55.38856 | -3.78816 | 20787 ft | 375 kts | 187° |
| 2026-05-07 14:11 | 55.36241 | -3.79212 | 21277 ft | 378 kts | 187° |
| 2026-05-07 14:11 | 55.33612 | -3.79610 | 21748 ft | 381 kts | 186° |
| 2026-05-07 14:12 | 55.30954 | -3.80014 | 22225 ft | 384 kts | 186° |
| 2026-05-07 14:12 | 55.28280 | -3.80425 | 22677 ft | 387 kts | 186° |
| 2026-05-07 14:12 | 55.25589 | -3.80798 | 23105 ft | 390 kts | 183° |
| 2026-05-07 14:12 | 55.22864 | -3.80521 | 23547 ft | 395 kts | 173° |
| 2026-05-07 14:13 | 55.20184 | -3.79356 | 23982 ft | 400 kts | 162° |
| 2026-05-07 14:13 | 55.17627 | -3.77361 | 24408 ft | 404 kts | 156° |
| 2026-05-07 14:13 | 55.15096 | -3.75170 | 24837 ft | 407 kts | 156° |
| 2026-05-07 14:13 | 55.12585 | -3.73006 | 25253 ft | 409 kts | 156° |
| 2026-05-07 14:14 | 55.10026 | -3.70810 | 25665 ft | 411 kts | 156° |
| 2026-05-07 14:14 | 55.07454 | -3.68609 | 26045 ft | 413 kts | 156° |
| 2026-05-07 14:14 | 55.04858 | -3.66389 | 26451 ft | 415 kts | 156° |
| 2026-05-07 14:14 | 55.02257 | -3.64165 | 26837 ft | 417 kts | 156° |
| 2026-05-07 14:15 | 54.99638 | -3.61931 | 27214 ft | 419 kts | 156° |
| 2026-05-07 14:15 | 54.97014 | -3.59693 | 27584 ft | 421 kts | 156° |
| 2026-05-07 14:15 | 54.94374 | -3.57447 | 27945 ft | 424 kts | 156° |
| 2026-05-07 14:15 | 54.91712 | -3.55194 | 28305 ft | 426 kts | 156° |
| 2026-05-07 14:16 | 54.89039 | -3.52930 | 28661 ft | 428 kts | 156° |
| 2026-05-07 14:16 | 54.86354 | -3.50652 | 29003 ft | 430 kts | 156° |
| 2026-05-07 14:16 | 54.83659 | -3.48367 | 29338 ft | 432 kts | 156° |
| 2026-05-07 14:16 | 54.80987 | -3.46105 | 29664 ft | 434 kts | 156° |
| 2026-05-07 14:17 | 54.78263 | -3.43803 | 29991 ft | 436 kts | 156° |
| 2026-05-07 14:17 | 54.75524 | -3.41498 | 30385 ft | 437 kts | 156° |
| 2026-05-07 14:17 | 54.72801 | -3.39209 | 30855 ft | 435 kts | 155° |
| 2026-05-07 14:17 | 54.70078 | -3.36923 | 31331 ft | 434 kts | 155° |
| 2026-05-07 14:18 | 54.67364 | -3.34645 | 31813 ft | 432 kts | 155° |
| 2026-05-07 14:18 | 54.64663 | -3.32386 | 32295 ft | 430 kts | 155° |
| 2026-05-07 14:18 | 54.61974 | -3.30144 | 32754 ft | 428 kts | 155° |
| 2026-05-07 14:18 | 54.59291 | -3.27904 | 32957 ft | 428 kts | 155° |
| 2026-05-07 14:19 | 54.56614 | -3.25667 | 33008 ft | 426 kts | 155° |
| 2026-05-07 14:19 | 54.51285 | -3.21240 | 33006 ft | 425 kts | 155° |
| 2026-05-07 14:20 | 54.45978 | -3.16848 | 33008 ft | 425 kts | 155° |
| 2026-05-07 14:20 | 54.40650 | -3.12451 | 33007 ft | 425 kts | 155° |
| 2026-05-07 14:21 | 54.35326 | -3.08056 | 33007 ft | 425 kts | 155° |
| 2026-05-07 14:21 | 54.29978 | -3.03659 | 33009 ft | 425 kts | 155° |
| 2026-05-07 14:22 | 54.24669 | -2.99309 | 33017 ft | 425 kts | 155° |
| 2026-05-07 14:22 | 54.19325 | -2.94943 | 33023 ft | 425 kts | 155° |
| 2026-05-07 14:23 | 54.13953 | -2.90683 | 33027 ft | 425 kts | 157° |
| 2026-05-07 14:23 | 54.08501 | -2.86741 | 33031 ft | 426 kts | 158° |
| 2026-05-07 14:24 | 54.03024 | -2.82861 | 33033 ft | 426 kts | 158° |
| 2026-05-07 14:24 | 53.97500 | -2.79429 | 33033 ft | 425 kts | 162° |
| 2026-05-07 14:25 | 53.91840 | -2.76431 | 33028 ft | 426 kts | 162° |
| 2026-05-07 14:25 | 53.86176 | -2.73425 | 33026 ft | 427 kts | 162° |
| 2026-05-07 14:26 | 53.80508 | -2.70427 | 33031 ft | 427 kts | 162° |
| 2026-05-07 14:26 | 53.74822 | -2.67434 | 33037 ft | 427 kts | 162° |
| 2026-05-07 14:27 | 53.69147 | -2.64460 | 33042 ft | 427 kts | 162° |
| 2026-05-07 14:27 | 53.63498 | -2.61512 | 33047 ft | 428 kts | 162° |
| 2026-05-07 14:28 | 53.57806 | -2.58554 | 33045 ft | 427 kts | 162° |
| 2026-05-07 14:28 | 53.52119 | -2.55599 | 33044 ft | 428 kts | 162° |
| 2026-05-07 14:29 | 53.46428 | -2.52631 | 33048 ft | 428 kts | 162° |
| 2026-05-07 14:29 | 53.40732 | -2.49687 | 33051 ft | 428 kts | 162° |
| 2026-05-07 14:30 | 53.35040 | -2.46755 | 33054 ft | 428 kts | 162° |
| 2026-05-07 14:30 | 53.29349 | -2.43825 | 33061 ft | 428 kts | 162° |
| 2026-05-07 14:31 | 53.23648 | -2.40884 | 33063 ft | 428 kts | 162° |
| 2026-05-07 14:31 | 53.17947 | -2.37987 | 33063 ft | 428 kts | 162° |
| 2026-05-07 14:32 | 53.12259 | -2.35100 | 33060 ft | 428 kts | 162° |
| 2026-05-07 14:32 | 53.06566 | -2.32209 | 33057 ft | 428 kts | 162° |
| 2026-05-07 14:33 | 53.01120 | -2.28452 | 33054 ft | 428 kts | 148° |
| 2026-05-07 14:33 | 52.96087 | -2.23135 | 32930 ft | 429 kts | 148° |
| 2026-05-07 14:33 | 52.93568 | -2.20490 | 32676 ft | 428 kts | 148° |
| 2026-05-07 14:34 | 52.91039 | -2.17845 | 32425 ft | 429 kts | 148° |
| 2026-05-07 14:34 | 52.88511 | -2.15213 | 32175 ft | 430 kts | 148° |
| 2026-05-07 14:34 | 52.85977 | -2.12575 | 31919 ft | 430 kts | 148° |
| 2026-05-07 14:34 | 52.83439 | -2.09930 | 31668 ft | 431 kts | 148° |
| 2026-05-07 14:35 | 52.80897 | -2.07286 | 31429 ft | 431 kts | 148° |
| 2026-05-07 14:35 | 52.78358 | -2.04646 | 31176 ft | 431 kts | 148° |
| 2026-05-07 14:35 | 52.75821 | -2.02008 | 30920 ft | 430 kts | 148° |
| 2026-05-07 14:35 | 52.73292 | -1.99378 | 30674 ft | 429 kts | 147° |
| 2026-05-07 14:36 | 52.70798 | -1.96792 | 30425 ft | 427 kts | 147° |
| 2026-05-07 14:36 | 52.68292 | -1.94200 | 30155 ft | 423 kts | 147° |
| 2026-05-07 14:36 | 52.65815 | -1.91645 | 29638 ft | 419 kts | 147° |
| 2026-05-07 14:36 | 52.63352 | -1.89108 | 29072 ft | 415 kts | 148° |
| 2026-05-07 14:37 | 52.60911 | -1.86597 | 28508 ft | 412 kts | 148° |
| 2026-05-07 14:37 | 52.56091 | -1.81647 | 27416 ft | 405 kts | 148° |
| 2026-05-07 14:37 | 52.53707 | -1.79201 | 26881 ft | 402 kts | 148° |
| 2026-05-07 14:38 | 52.51345 | -1.76774 | 26343 ft | 399 kts | 148° |
| 2026-05-07 14:38 | 52.49005 | -1.74374 | 25820 ft | 396 kts | 148° |
| 2026-05-07 14:38 | 52.46677 | -1.71993 | 25298 ft | 392 kts | 149° |
| 2026-05-07 14:38 | 52.44367 | -1.69639 | 24792 ft | 390 kts | 149° |
| 2026-05-07 14:39 | 52.42074 | -1.67306 | 24293 ft | 387 kts | 149° |
| 2026-05-07 14:39 | 52.39793 | -1.64987 | 23816 ft | 384 kts | 149° |
| 2026-05-07 14:39 | 52.37531 | -1.62694 | 23352 ft | 381 kts | 149° |
| 2026-05-07 14:39 | 52.35283 | -1.60416 | 22884 ft | 378 kts | 149° |
| 2026-05-07 14:40 | 52.33054 | -1.58157 | 22432 ft | 375 kts | 149° |
| 2026-05-07 14:40 | 52.30842 | -1.55914 | 21989 ft | 372 kts | 149° |
| 2026-05-07 14:40 | 52.28650 | -1.53694 | 21528 ft | 369 kts | 150° |
| 2026-05-07 14:40 | 52.26475 | -1.51496 | 21080 ft | 365 kts | 150° |
| 2026-05-07 14:41 | 52.24322 | -1.49321 | 20619 ft | 362 kts | 150° |
| 2026-05-07 14:41 | 52.22194 | -1.47155 | 20156 ft | 359 kts | 148° |
| 2026-05-07 14:41 | 52.20261 | -1.44666 | 19753 ft | 358 kts | 141° |
| 2026-05-07 14:41 | 52.18352 | -1.41979 | 19404 ft | 366 kts | 141° |
| 2026-05-07 14:42 | 52.16411 | -1.39273 | 19021 ft | 366 kts | 141° |
| 2026-05-07 14:42 | 52.14482 | -1.36590 | 18655 ft | 365 kts | 141° |
| 2026-05-07 14:42 | 52.12556 | -1.33913 | 18272 ft | 363 kts | 141° |
| 2026-05-07 14:42 | 52.10644 | -1.31252 | 17906 ft | 361 kts | 141° |
| 2026-05-07 14:43 | 52.08741 | -1.28602 | 17538 ft | 359 kts | 141° |
| 2026-05-07 14:43 | 52.06847 | -1.25967 | 17176 ft | 357 kts | 141° |
| 2026-05-07 14:43 | 52.04966 | -1.23357 | 16816 ft | 354 kts | 141° |
| 2026-05-07 14:43 | 52.03095 | -1.20765 | 16445 ft | 352 kts | 141° |
| 2026-05-07 14:44 | 52.01236 | -1.18192 | 16099 ft | 350 kts | 141° |
| 2026-05-07 14:44 | 51.99382 | -1.15628 | 15732 ft | 348 kts | 141° |
| 2026-05-07 14:44 | 51.97541 | -1.13086 | 15375 ft | 346 kts | 141° |
| 2026-05-07 14:44 | 51.95710 | -1.10565 | 15024 ft | 345 kts | 141° |
| 2026-05-07 14:45 | 51.93876 | -1.08041 | 14317 ft | 349 kts | 141° |
| 2026-05-07 14:45 | 51.92078 | -1.05567 | 14127 ft | 336 kts | 141° |
| 2026-05-07 14:45 | 51.90331 | -1.03163 | 14016 ft | 323 kts | 141° |
| 2026-05-07 14:45 | 51.88652 | -1.00857 | 13900 ft | 311 kts | 141° |
| 2026-05-07 14:46 | 51.87023 | -0.98622 | 13770 ft | 302 kts | 141° |
| 2026-05-07 14:46 | 51.85516 | -0.96333 | 13647 ft | 294 kts | 130° |
| 2026-05-07 14:46 | 51.84468 | -0.93550 | 13523 ft | 287 kts | 118° |
| 2026-05-07 14:46 | 51.83603 | -0.90690 | 13393 ft | 279 kts | 118° |
| 2026-05-07 14:47 | 51.82757 | -0.87909 | 13249 ft | 272 kts | 118° |
| 2026-05-07 14:47 | 51.81923 | -0.85181 | 13004 ft | 269 kts | 118° |
| 2026-05-07 14:47 | 51.81096 | -0.82486 | 12643 ft | 266 kts | 118° |
| 2026-05-07 14:47 | 51.80280 | -0.79828 | 12245 ft | 261 kts | 118° |
| 2026-05-07 14:48 | 51.79479 | -0.77223 | 11816 ft | 258 kts | 118° |
| 2026-05-07 14:48 | 51.78684 | -0.74638 | 11353 ft | 256 kts | 118° |
| 2026-05-07 14:48 | 51.77893 | -0.72066 | 10893 ft | 255 kts | 118° |
| 2026-05-07 14:48 | 51.77107 | -0.69507 | 10433 ft | 254 kts | 118° |
| 2026-05-07 14:49 | 51.76320 | -0.66959 | 9958 ft | 253 kts | 118° |
| 2026-05-07 14:49 | 51.75543 | -0.64447 | 9490 ft | 253 kts | 118° |
| 2026-05-07 14:49 | 51.74759 | -0.61910 | 9029 ft | 252 kts | 118° |
| 2026-05-07 14:49 | 51.73975 | -0.59385 | 8552 ft | 251 kts | 120° |
| 2026-05-07 14:50 | 51.72851 | -0.57340 | 8105 ft | 243 kts | 151° |
| 2026-05-07 14:50 | 51.71270 | -0.56604 | 7665 ft | 236 kts | 183° |
| 2026-05-07 14:50 | 51.70214 | -0.56932 | 7357 ft | 234 kts | 203° |
| 2026-05-07 14:50 | 51.68754 | -0.58081 | 6865 ft | 234 kts | 207° |
| 2026-05-07 14:51 | 51.67307 | -0.59262 | 6382 ft | 232 kts | 206° |
| 2026-05-07 14:51 | 51.65871 | -0.60431 | 6022 ft | 228 kts | 206° |
| 2026-05-07 14:51 | 51.64457 | -0.61582 | 5700 ft | 228 kts | 206° |
| 2026-05-07 14:51 | 51.63038 | -0.62731 | 5234 ft | 228 kts | 205° |
| 2026-05-07 14:52 | 51.61636 | -0.63864 | 4985 ft | 223 kts | 205° |
| 2026-05-07 14:52 | 51.60226 | -0.65000 | 4978 ft | 229 kts | 205° |
| 2026-05-07 14:52 | 51.58852 | -0.66284 | 4976 ft | 231 kts | 221° |
| 2026-05-07 14:52 | 51.57994 | -0.68452 | 4985 ft | 234 kts | 252° |
| 2026-05-07 14:53 | 51.57678 | -0.71031 | 4986 ft | 236 kts | 260° |
| 2026-05-07 14:53 | 51.57459 | -0.73648 | 4929 ft | 235 kts | 260° |
| 2026-05-07 14:53 | 51.56921 | -0.76054 | 4731 ft | 224 kts | 231° |
| 2026-05-07 14:53 | 51.55726 | -0.77494 | 4603 ft | 212 kts | 196° |
| 2026-05-07 14:54 | 51.54312 | -0.77827 | 4502 ft | 202 kts | 182° |
| 2026-05-07 14:54 | 51.52919 | -0.77897 | 4376 ft | 199 kts | 180° |
| 2026-05-07 14:54 | 51.51573 | -0.77931 | 4247 ft | 193 kts | 180° |
| 2026-05-07 14:54 | 51.50253 | -0.77962 | 4140 ft | 187 kts | 180° |
| 2026-05-07 14:55 | 51.48963 | -0.77974 | 3937 ft | 184 kts | 174° |
| 2026-05-07 14:55 | 51.47816 | -0.77187 | 3698 ft | 182 kts | 135° |
| 2026-05-07 14:55 | 51.47374 | -0.75335 | 3481 ft | 185 kts | 85° |
| 2026-05-07 14:55 | 51.47621 | -0.73273 | 3146 ft | 191 kts | 87° |
| 2026-05-07 14:56 | 51.47651 | -0.71168 | 2874 ft | 188 kts | 92° |
| 2026-05-07 14:56 | 51.47652 | -0.69061 | 2599 ft | 189 kts | 91° |
| 2026-05-07 14:56 | 51.47660 | -0.66969 | 2338 ft | 184 kts | 91° |
| 2026-05-07 14:56 | 51.47670 | -0.64997 | 2097 ft | 174 kts | 91° |
| 2026-05-07 14:57 | 51.47680 | -0.63108 | 1875 ft | 166 kts | 90° |
| 2026-05-07 14:57 | 51.47689 | -0.61291 | 1693 ft | 162 kts | 90° |
| 2026-05-07 14:57 | 51.47698 | -0.59491 | 1455 ft | 161 kts | 90° |
| 2026-05-07 14:57 | 51.47708 | -0.57703 | 1237 ft | 159 kts | 90° |
| 2026-05-07 14:58 | 51.47716 | -0.55984 | 1025 ft | 151 kts | 90° |
| 2026-05-07 14:58 | 51.47725 | -0.54317 | 830 ft | 149 kts | 90° |
| 2026-05-07 14:58 | 51.47738 | -0.52662 | 644 ft | 147 kts | 90° |
| 2026-05-07 14:58 | 51.47742 | -0.51027 | 391 ft | 146 kts | 91° |
| 2026-05-07 14:59 | 51.47747 | -0.49388 | 226 ft | 146 kts | 88° |
| 2026-05-07 14:59 | 51.47748 | -0.47755 | 101 ft | 146 kts | 86° |
| 2026-05-07 14:59 | 51.47767 | -0.46344 | 90 ft | 102 kts | 90° |
| 2026-05-07 14:59 | 51.47761 | -0.45674 | 84 ft | 28 kts | 89° |
| 2026-05-07 15:00 | 51.47702 | -0.45481 | 89 ft | 11 kts | 160° |
| 2026-05-07 15:00 | 51.47634 | -0.45474 | 90 ft | 9 kts | 189° |
| 2026-05-07 15:00 | 51.47597 | -0.45561 | 86 ft | 13 kts | 263° |
| 2026-05-07 15:00 | 51.47596 | -0.45748 | 89 ft | 19 kts | 269° |
| 2026-05-07 15:01 | 51.47595 | -0.45978 | 89 ft | 22 kts | 270° |
| 2026-05-07 15:01 | 51.47594 | -0.46240 | 86 ft | 25 kts | 269° |
| 2026-05-07 15:01 | 51.47594 | -0.46531 | 88 ft | 27 kts | 270° |
| 2026-05-07 15:01 | 51.47590 | -0.46850 | 88 ft | 30 kts | 263° |
| 2026-05-07 15:02 | 51.47582 | -0.47193 | 88 ft | 31 kts | 270° |
| 2026-05-07 15:02 | 51.47584 | -0.47529 | 88 ft | 23 kts | 270° |
| 2026-05-07 15:02 | 51.47581 | -0.47799 | 87 ft | 24 kts | 270° |
| 2026-05-07 15:02 | 51.47583 | -0.48045 | 88 ft | 15 kts | 272° |
| 2026-05-07 15:03 | 51.47582 | -0.48078 | 87 ft | 1 kts | 267° |
| 2026-05-07 15:03 | 51.47579 | -0.48143 | 90 ft | 13 kts | 266° |
| 2026-05-07 15:03 | 51.47578 | -0.48299 | 88 ft | 12 kts | 270° |
| 2026-05-07 15:03 | 51.47571 | -0.48434 | 86 ft | 13 kts | 245° |
| 2026-05-07 15:04 | 51.47497 | -0.48510 | 87 ft | 13 kts | 234° |
| 2026-05-07 15:04 | 51.47487 | -0.48659 | 90 ft | 15 kts | 270° |
| 2026-05-07 15:04 | 51.47487 | -0.48758 | 89 ft | 0 kts | 270° |
| 2026-05-07 15:04 | 51.47487 | -0.48783 | 88 ft | 5 kts | 269° |
| 2026-05-07 15:05 | 51.47486 | -0.48854 | 90 ft | 7 kts | 268° |
| 2026-05-07 15:05 | 51.47454 | -0.48888 | 89 ft | 0 kts | 189° |
| 2026-05-07 15:05 | 51.47448 | -0.48889 | 88 ft | 2 kts | 187° |
| 2026-05-07 15:05 | 51.47438 | -0.48891 | 91 ft | 3 kts | 184° |
| 2026-05-07 15:06 | 51.47418 | -0.48891 | 88 ft | 3 kts | 180° |
| 2026-05-07 15:06 | 51.47407 | -0.48891 | 91 ft | 1 kts | 180° |
| 2026-05-07 15:06 | 51.47404 | -0.48891 | 86 ft | 0 kts | 180° |